Time,TemperatureF,DewpointF,PressureIn,WindDirection,WindDirectionDegrees,WindSpeedMPH,WindSpeedGustMPH,Humidity,HourlyPrecipIn,Conditions,Clouds,dailyrainin,SolarRadiationWatts/m^2,SoftwareType,DateUTC
2013-02-12 00:01:00,28.0,28.0,-100.00,SSW,197,1.0,4.0,99,0.00,,,-99.99,0.000000,,2013-02-12 05:01:00,
2013-02-12 00:10:00,29.0,29.0,-100.00,West,262,0.0,4.0,100,0.00,,,0.00,0.000000,,2013-02-12 05:10:00,
2013-02-12 00:42:00,29.0,29.0,-100.00,West,262,0.0,4.0,100,0.00,,,0.00,0.000000,,2013-02-12 05:42:00,
2013-02-12 00:52:00,29.0,29.0,-100.00,West,262,0.0,4.0,100,0.00,,,0.00,0.000000,,2013-02-12 05:52:00,
2013-02-12 01:02:00,29.0,29.0,-100.00,West,262,0.0,4.0,100,0.00,,,0.00,0.000000,,2013-02-12 06:02:00,
2013-02-12 01:10:00,29.0,29.0,-100.00,East,82,1.0,4.0,99,0.00,,,0.00,0.000000,,2013-02-12 06:10:00,
2013-02-12 01:32:00,29.0,29.0,-100.00,East,82,1.0,4.0,99,0.00,,,0.00,0.000000,,2013-02-12 06:32:00,
2013-02-12 01:42:00,29.0,29.0,-100.00,East,82,1.0,4.0,99,0.00,,,0.00,0.000000,,2013-02-12 06:42:00,
2013-02-12 01:52:00,29.0,29.0,-100.00,East,82,1.0,4.0,99,0.00,,,0.00,0.000000,,2013-02-12 06:52:00,
2013-02-12 02:02:00,29.0,29.0,-100.00,East,82,1.0,4.0,99,0.00,,,0.00,0.000000,,2013-02-12 07:02:00,
2013-02-12 02:10:00,28.0,28.0,-100.00,ESE,115,1.0,3.0,100,0.00,,,0.00,0.000000,,2013-02-12 07:10:00,
2013-02-12 02:42:00,28.0,28.0,-100.00,ESE,115,1.0,3.0,100,0.00,,,0.00,0.000000,,2013-02-12 07:42:00,
2013-02-12 02:52:00,28.0,28.0,-100.00,ESE,115,1.0,3.0,100,0.00,,,0.00,0.000000,,2013-02-12 07:52:00,
2013-02-12 03:01:00,28.0,28.0,-100.00,ESE,115,1.0,3.0,100,0.00,,,0.00,0.000000,,2013-02-12 08:01:00,
2013-02-12 03:10:00,28.0,28.0,-100.00,SW,232,0.0,2.0,100,0.00,,,0.00,0.000000,,2013-02-12 08:10:00,
2013-02-12 03:42:00,28.0,28.0,-100.00,SW,232,0.0,2.0,100,0.00,,,0.00,0.000000,,2013-02-12 08:42:00,
2013-02-12 03:52:00,28.0,28.0,-100.00,SW,232,0.0,2.0,100,0.00,,,0.00,0.000000,,2013-02-12 08:52:00,
2013-02-12 04:02:00,28.0,28.0,-100.00,SW,232,0.0,2.0,100,0.00,,,0.00,0.000000,,2013-02-12 09:02:00,
2013-02-12 04:10:00,30.0,30.0,-100.00,West,265,2.0,5.0,100,0.00,,,0.00,0.000000,,2013-02-12 09:10:00,
2013-02-12 04:32:00,30.0,30.0,-100.00,West,265,2.0,5.0,100,0.00,,,0.00,0.000000,,2013-02-12 09:32:00,
2013-02-12 04:42:00,30.0,30.0,-100.00,West,265,2.0,5.0,100,0.00,,,0.00,0.000000,,2013-02-12 09:42:00,
2013-02-12 04:52:00,30.0,30.0,-100.00,West,265,2.0,5.0,100,0.00,,,0.00,0.000000,,2013-02-12 09:52:00,
2013-02-12 05:02:00,30.0,30.0,-100.00,West,265,2.0,5.0,100,0.00,,,0.00,0.000000,,2013-02-12 10:02:00,
2013-02-12 05:10:00,29.0,26.0,-100.00,ENE,69,1.0,8.0,88,0.00,,,0.00,0.000000,,2013-02-12 10:10:00,
2013-02-12 05:43:00,29.0,26.0,-100.00,ENE,69,1.0,8.0,88,0.00,,,0.00,0.000000,,2013-02-12 10:43:00,
2013-02-12 05:52:00,29.0,26.0,-100.00,ENE,69,1.0,8.0,88,0.00,,,0.00,0.000000,,2013-02-12 10:52:00,
2013-02-12 06:02:00,29.0,26.0,-100.00,ENE,69,1.0,8.0,88,0.00,,,0.00,0.000000,,2013-02-12 11:02:00,
2013-02-12 06:10:00,31.0,30.0,-100.00,West,281,3.0,5.0,96,0.00,,,0.00,0.000000,,2013-02-12 11:10:00,
2013-02-12 06:32:00,31.0,30.0,-100.00,West,281,3.0,5.0,96,0.00,,,0.00,0.000000,,2013-02-12 11:32:00,
2013-02-12 06:42:00,31.0,30.0,-100.00,West,281,3.0,5.0,96,0.00,,,0.00,0.000000,,2013-02-12 11:42:00,
2013-02-12 06:53:00,31.0,30.0,-100.00,West,281,3.0,5.0,96,0.00,,,0.00,0.000000,,2013-02-12 11:53:00,
2013-02-12 07:02:00,31.0,30.0,-100.00,West,281,3.0,5.0,96,0.00,,,0.00,0.000000,,2013-02-12 12:02:00,
2013-02-12 07:10:00,30.0,27.0,-100.00,West,262,1.0,4.0,89,0.00,,,0.00,0.000000,,2013-02-12 12:10:00,
2013-02-12 07:32:00,30.0,27.0,-100.00,West,262,1.0,4.0,89,0.00,,,0.00,0.000000,,2013-02-12 12:32:00,
2013-02-12 07:42:00,30.0,27.0,-100.00,West,262,1.0,4.0,89,0.00,,,0.00,0.000000,,2013-02-12 12:42:00,
2013-02-12 07:53:00,30.0,27.0,-100.00,West,262,1.0,4.0,89,0.00,,,0.00,0.000000,,2013-02-12 12:53:00,
2013-02-12 08:02:00,30.0,27.0,-100.00,West,262,1.0,4.0,89,0.00,,,0.00,0.000000,,2013-02-12 13:02:00,
2013-02-12 08:10:00,33.0,30.0,-100.00,WSW,242,3.0,6.0,88,0.00,,,0.00,6.000000,,2013-02-12 13:10:00,
2013-02-12 08:32:00,33.0,30.0,-100.00,WSW,242,3.0,6.0,88,0.00,,,0.00,6.000000,,2013-02-12 13:32:00,
2013-02-12 08:42:00,33.0,30.0,-100.00,WSW,242,3.0,6.0,88,0.00,,,0.00,6.000000,,2013-02-12 13:42:00,
2013-02-12 08:52:00,33.0,30.0,-100.00,WSW,242,3.0,6.0,88,0.00,,,0.00,6.000000,,2013-02-12 13:52:00,
2013-02-12 09:01:00,33.0,30.0,-100.00,WSW,242,3.0,6.0,88,0.00,,,0.00,6.000000,,2013-02-12 14:01:00,
2013-02-12 09:10:00,35.0,32.0,-100.00,SW,223,2.0,6.0,87,0.00,,,0.00,17.000000,,2013-02-12 14:10:00,
2013-02-12 09:32:00,35.0,32.0,-100.00,SW,223,2.0,6.0,87,0.00,,,0.00,17.000000,,2013-02-12 14:32:00,
2013-02-12 09:42:00,35.0,32.0,-100.00,SW,223,2.0,6.0,87,0.00,,,0.00,17.000000,,2013-02-12 14:42:00,
2013-02-12 09:52:00,35.0,32.0,-100.00,SW,223,2.0,6.0,87,0.00,,,0.00,17.000000,,2013-02-12 14:52:00,
2013-02-12 10:02:00,35.0,32.0,-100.00,SW,223,2.0,6.0,87,0.00,,,0.00,17.000000,,2013-02-12 15:02:00,
2013-02-12 10:10:00,35.0,32.0,-100.00,SW,235,2.0,6.0,87,0.00,,,0.00,25.000000,,2013-02-12 15:10:00,
2013-02-12 10:32:00,35.0,32.0,-100.00,SW,235,2.0,6.0,87,0.00,,,0.00,25.000000,,2013-02-12 15:32:00,
2013-02-12 10:42:00,35.0,32.0,-100.00,SW,235,2.0,6.0,87,0.00,,,0.00,25.000000,,2013-02-12 15:42:00,
2013-02-12 10:52:00,35.0,32.0,-100.00,SW,235,2.0,6.0,87,0.00,,,0.00,25.000000,,2013-02-12 15:52:00,
2013-02-12 11:02:00,35.0,32.0,-100.00,SW,235,2.0,6.0,87,0.00,,,0.00,25.000000,,2013-02-12 16:02:00,
2013-02-12 11:10:00,35.0,31.0,-100.00,WSW,240,3.0,5.0,86,0.00,,,0.00,79.000000,,2013-02-12 16:10:00,
2013-02-12 11:32:00,35.0,31.0,-100.00,WSW,240,3.0,5.0,86,0.00,,,0.00,79.000000,,2013-02-12 16:32:00,
2013-02-12 11:42:00,35.0,31.0,-100.00,WSW,240,3.0,5.0,86,0.00,,,0.00,79.000000,,2013-02-12 16:42:00,
2013-02-12 11:52:00,35.0,31.0,-100.00,WSW,240,3.0,5.0,86,0.00,,,0.00,79.000000,,2013-02-12 16:52:00,
2013-02-12 12:01:00,35.0,31.0,-100.00,WSW,240,3.0,5.0,86,0.00,,,0.00,79.000000,,2013-02-12 17:01:00,
2013-02-12 12:10:00,36.0,30.0,-100.00,WSW,255,5.0,9.0,79,0.00,,,0.00,81.000000,,2013-02-12 17:10:00,
2013-02-12 12:42:00,36.0,30.0,-100.00,WSW,255,5.0,9.0,79,0.00,,,0.00,81.000000,,2013-02-12 17:42:00,
2013-02-12 12:52:00,36.0,30.0,-100.00,WSW,255,5.0,9.0,79,0.00,,,0.00,81.000000,,2013-02-12 17:52:00,
2013-02-12 13:02:00,36.0,30.0,-100.00,WSW,255,5.0,9.0,79,0.00,,,0.00,81.000000,,2013-02-12 18:02:00,
2013-02-12 14:10:00,36.0,29.0,-100.00,West,259,4.0,15.0,75,-99.99,,,-99.99,49.000000,,2013-02-12 19:10:00,
2013-02-12 14:42:00,36.0,29.0,-100.00,West,259,4.0,15.0,75,-99.99,,,-99.99,49.000000,,2013-02-12 19:42:00,
2013-02-12 14:52:00,36.0,29.0,-100.00,West,259,4.0,15.0,75,-99.99,,,-99.99,49.000000,,2013-02-12 19:52:00,
2013-02-12 15:01:00,36.0,29.0,-100.00,West,259,4.0,15.0,75,-99.99,,,-99.99,49.000000,,2013-02-12 20:01:00,
2013-02-12 16:10:00,34.0,27.0,-100.00,WSW,249,3.0,10.0,76,-99.99,,,0.00,11.000000,,2013-02-12 21:10:00,
2013-02-12 16:42:00,34.0,27.0,-100.00,WSW,249,3.0,10.0,76,-99.99,,,0.00,11.000000,,2013-02-12 21:42:00,
2013-02-12 16:52:00,34.0,27.0,-100.00,WSW,249,3.0,10.0,76,-99.99,,,0.00,11.000000,,2013-02-12 21:52:00,
2013-02-12 17:01:00,34.0,27.0,-100.00,WSW,249,3.0,10.0,76,-99.99,,,0.00,11.000000,,2013-02-12 22:01:00,
2013-02-12 17:10:00,34.0,26.0,-100.00,WSW,251,4.0,15.0,73,0.00,,,0.00,2.000000,,2013-02-12 22:10:00,
2013-02-12 17:32:00,34.0,26.0,-100.00,WSW,251,4.0,15.0,73,0.00,,,0.00,2.000000,,2013-02-12 22:32:00,
2013-02-12 17:42:00,34.0,26.0,-100.00,WSW,251,4.0,15.0,73,0.00,,,0.00,2.000000,,2013-02-12 22:42:00,
2013-02-12 17:52:00,34.0,26.0,-100.00,WSW,251,4.0,15.0,73,0.00,,,0.00,2.000000,,2013-02-12 22:52:00,
2013-02-12 18:02:00,34.0,26.0,-100.00,WSW,251,4.0,15.0,73,0.00,,,0.00,2.000000,,2013-02-12 23:02:00,
2013-02-12 18:10:00,33.0,28.0,-100.00,West,268,3.0,8.0,83,0.00,,,0.00,0.000000,,2013-02-12 23:10:00,
2013-02-12 18:32:00,33.0,28.0,-100.00,West,268,3.0,8.0,83,0.00,,,0.00,0.000000,,2013-02-12 23:32:00,
2013-02-12 18:42:00,33.0,28.0,-100.00,West,268,3.0,8.0,83,0.00,,,0.00,0.000000,,2013-02-12 23:42:00,
2013-02-12 18:52:00,33.0,28.0,-100.00,West,268,3.0,8.0,83,0.00,,,0.00,0.000000,,2013-02-12 23:52:00,
2013-02-12 19:02:00,33.0,28.0,-100.00,West,268,3.0,8.0,83,0.00,,,0.00,0.000000,,2013-02-13 00:02:00,
2013-02-12 19:10:00,33.0,27.0,-100.00,WSW,258,4.0,10.0,79,0.00,,,0.00,0.000000,,2013-02-13 00:10:00,
2013-02-12 19:42:00,33.0,27.0,-100.00,WSW,258,4.0,10.0,79,0.00,,,0.00,0.000000,,2013-02-13 00:42:00,
2013-02-12 19:52:00,33.0,27.0,-100.00,WSW,258,4.0,10.0,79,0.00,,,0.00,0.000000,,2013-02-13 00:52:00,
2013-02-12 20:01:00,33.0,27.0,-100.00,WSW,258,4.0,10.0,79,0.00,,,0.00,0.000000,,2013-02-13 01:01:00,
2013-02-12 21:10:00,33.0,26.0,-100.00,West,275,3.0,15.0,76,-99.99,,,0.00,0.000000,,2013-02-13 02:10:00,
2013-02-12 21:42:00,33.0,26.0,-100.00,West,275,3.0,15.0,76,-99.99,,,0.00,0.000000,,2013-02-13 02:42:00,
2013-02-12 21:52:00,33.0,26.0,-100.00,West,275,3.0,15.0,76,-99.99,,,0.00,0.000000,,2013-02-13 02:52:00,
2013-02-12 22:02:00,33.0,26.0,-100.00,West,275,3.0,15.0,76,-99.99,,,0.00,0.000000,,2013-02-13 03:02:00,
2013-02-12 22:10:00,32.0,25.0,-100.00,West,279,5.0,17.0,74,0.00,,,0.00,0.000000,,2013-02-13 03:10:00,
2013-02-12 22:32:00,32.0,25.0,-100.00,West,279,5.0,17.0,74,0.00,,,0.00,0.000000,,2013-02-13 03:32:00,
2013-02-12 22:42:00,32.0,25.0,-100.00,West,279,5.0,17.0,74,0.00,,,0.00,0.000000,,2013-02-13 03:42:00,
2013-02-12 22:52:00,32.0,25.0,-100.00,West,279,5.0,17.0,74,0.00,,,0.00,0.000000,,2013-02-13 03:52:00,
2013-02-12 23:01:00,32.0,25.0,-100.00,West,279,5.0,17.0,74,0.00,,,0.00,0.000000,,2013-02-13 04:01:00,
2013-02-12 23:10:00,31.0,27.0,-100.00,ESE,122,1.0,11.0,84,0.00,,,0.00,0.000000,,2013-02-13 04:10:00,
2013-02-12 23:42:00,31.0,27.0,-100.00,ESE,122,1.0,11.0,84,0.00,,,0.00,0.000000,,2013-02-13 04:42:00,
2013-02-12 23:52:00,31.0,27.0,-100.00,ESE,122,1.0,11.0,84,0.00,,,0.00,0.000000,,2013-02-13 04:52:00,